Time;durP1;ratioP1;P1;durP2;ratioP2;P2;SDS_P1;SDS_P2;PMS_P1;PMS_P2;Temp;Humidity;BMP_temperature;BMP_pressure;BME280_temperature;BME280_humidity;BME280_pressure;Samples;Min_cycle;Max_cycle;Signal;HPM_P1;HPM_P2
2021/07/01 00:02:03;;;;;;;7.75;5.45;;;;;;;27.23;60.87;101177.11;1671377;84;21612;-55
2021/07/01 00:04:30;;;;;;;7.30;6.15;;;;;;;27.25;60.75;101175.16;1685202;82;21529;-55
2021/07/01 00:06:58;;;;;;;5.78;5.25;;;;;;;27.27;60.82;101179.87;1685743;83;21055;-57
2021/07/01 00:09:26;;;;;;;8.08;5.70;;;;;;;27.28;60.80;101190.09;1692658;82;21538;-54
2021/07/01 00:11:55;;;;;;;6.65;5.20;;;;;;;27.29;60.74;101195.30;1670073;84;21034;-55
2021/07/01 00:14:22;;;;;;;6.58;5.35;;;;;;;27.30;60.82;101214.38;1665860;84;21022;-57
2021/07/01 00:16:50;;;;;;;9.35;6.62;;;;;;;27.30;60.82;101214.38;1675430;84;21045;-58
2021/07/01 00:19:17;;;;;;;6.97;5.60;;;;;;;27.29;60.91;101227.36;1621526;86;21534;-57
2021/07/01 00:21:44;;;;;;;6.08;5.55;;;;;;;27.29;61.06;101236.72;1638957;86;21082;-55
2021/07/01 00:24:11;;;;;;;6.33;5.67;;;;;;;27.29;61.19;101246.06;1668312;84;21026;-56
2021/07/01 00:26:38;;;;;;;6.67;5.85;;;;;;;27.27;61.44;101250.70;1695531;83;21491;-58
2021/07/01 00:29:05;;;;;;;6.72;5.78;;;;;;;27.27;61.56;101252.03;1697686;83;21569;-58
2021/07/01 00:31:32;;;;;;;6.60;6.00;;;;;;;27.25;61.69;101245.97;1704220;83;21038;-57
2021/07/01 00:34:00;;;;;;;6.62;6.03;;;;;;;27.26;61.72;101241.00;1702124;83;21026;-56
2021/07/01 00:36:27;;;;;;;8.18;6.40;;;;;;;27.28;61.68;101231.03;1696062;83;21574;-59
2021/07/01 00:38:54;;;;;;;6.25;5.50;;;;;;;27.31;61.67;101213.38;1688313;82;21047;-55
2021/07/01 00:41:21;;;;;;;6.22;5.62;;;;;;;27.33;61.65;101207.42;1693825;83;21068;-55
2021/07/01 00:43:48;;;;;;;7.60;5.65;;;;;;;27.35;61.50;101206.84;1697118;83;21052;-55
2021/07/01 00:46:16;;;;;;;7.72;6.28;;;;;;;27.39;61.39;101215.43;1681467;83;21033;-62
2021/07/01 00:48:43;;;;;;;6.72;6.00;;;;;;;27.41;61.30;101215.33;1722936;82;21007;-57
2021/07/01 00:51:10;;;;;;;6.80;6.10;;;;;;;27.43;61.20;101225.39;1734439;82;21074;-55
2021/07/01 00:53:37;;;;;;;6.40;5.90;;;;;;;27.44;61.16;101229.75;1706363;82;21143;-56
2021/07/01 00:56:05;;;;;;;15.63;6.87;;;;;;;27.43;61.05;101232.08;1706849;82;21148;-58
2021/07/01 00:58:32;;;;;;;6.15;5.60;;;;;;;27.44;60.95;101240.44;1721436;82;21015;-55
2021/07/01 01:01:02;;;;;;;6.42;5.92;;;;;;;27.45;60.84;101242.16;1726822;82;21053;-55
2021/07/01 01:03:31;;;;;;;7.08;6.47;;;;;;;27.46;60.73;101257.20;1734052;82;21022;-57
2021/07/01 01:05:58;;;;;;;6.15;5.55;;;;;;;27.46;60.67;101277.24;1683722;83;21041;-57
2021/07/01 01:08:25;;;;;;;7.12;6.42;;;;;;;27.44;60.68;101285.88;1709125;82;21034;-55
2021/07/01 01:10:53;;;;;;;7.75;6.60;;;;;;;27.44;60.72;101287.22;1711305;82;21037;-57
2021/07/01 01:13:40;;;;;;;8.33;6.62;;;;;;;27.42;60.74;101283.82;1719769;82;21026;-59
2021/07/01 01:16:20;;;;;;;6.72;6.08;;;;;;;27.43;60.73;101290.87;1683789;83;21530;-58
2021/07/01 01:18:47;;;;;;;7.87;7.15;;;;;;;27.43;60.64;101298.39;1722619;82;21077;-55
2021/07/01 01:21:17;;;;;;;7.78;6.37;;;;;;;27.45;60.54;101311.64;1711357;82;21090;-58
2021/07/01 01:23:44;;;;;;;6.95;6.35;;;;;;;27.42;60.57;101313.22;1696984;83;21552;-57
2021/07/01 01:26:12;;;;;;;7.42;6.70;;;;;;;27.41;60.67;101314.22;1667923;85;21096;-57
2021/07/01 01:28:54;;;;;;;9.05;7.10;;;;;;;27.38;60.76;101314.83;1629237;85;21018;-55
2021/07/01 01:31:41;;;;;;;7.47;6.55;;;;;;;27.39;60.90;101314.32;1649294;85;21105;-55
2021/07/01 01:34:09;;;;;;;7.87;7.08;;;;;;;27.38;60.93;101309.48;1669744;84;21226;-55
2021/07/01 01:36:36;;;;;;;10.03;7.00;;;;;;;27.41;60.92;101318.22;1628665;86;21087;-55
2021/07/01 01:39:04;;;;;;;8.13;6.72;;;;;;;27.41;60.98;101310.20;1637698;86;21039;-57
2021/07/01 01:41:33;;;;;;;7.12;6.50;;;;;;;27.41;61.01;101312.88;1677543;82;21022;-61
2021/07/01 01:44:01;;;;;;;8.43;7.03;;;;;;;27.41;61.03;101323.56;1639326;85;21110;-56
2021/07/01 01:46:36;;;;;;;8.80;6.65;;;;;;;27.38;61.07;101328.19;1675592;85;21050;-56
2021/07/01 01:49:05;;;;;;;7.12;6.45;;;;;;;27.36;61.12;101346.66;1711004;83;21021;-59
2021/07/01 01:51:34;;;;;;;7.30;6.58;;;;;;;27.34;61.15;101349.47;1662858;84;21529;-58
2021/07/01 01:54:01;;;;;;;8.63;6.90;;;;;;;27.34;61.15;101356.15;1672058;85;21050;-56
2021/07/01 01:56:36;;;;;;;7.45;6.75;;;;;;;27.34;61.09;101355.30;1690120;82;21050;-57
2021/07/01 01:58:59;;;;;;;9.78;6.45;;;;;;;27.31;61.06;101351.00;1685664;83;21573;-59
2021/07/01 02:01:46;;;;;;;7.05;6.28;;;;;;;27.32;60.94;101343.37;1687582;83;21011;-56
2021/07/01 02:04:13;;;;;;;7.55;6.30;;;;;;;27.31;60.79;101336.31;1703439;83;21443;-57
2021/07/01 02:06:44;;;;;;;11.60;6.92;;;;;;;27.29;60.56;101328.91;1678592;83;21746;-57
2021/07/01 02:09:13;;;;;;;8.90;5.67;;;;;;;27.29;60.26;101324.90;1695987;83;21078;-59
2021/07/01 02:11:46;;;;;;;9.40;5.70;;;;;;;27.29;60.38;101327.57;1692602;81;21062;-55
2021/07/01 02:14:17;;;;;;;6.45;5.85;;;;;;;27.30;60.29;101323.08;1676583;83;21042;-60
2021/07/01 02:16:45;;;;;;;5.83;5.33;;;;;;;27.29;60.09;101319.55;1649604;86;21053;-55
2021/07/01 02:19:13;;;;;;;18.00;6.20;;;;;;;27.29;60.01;101318.22;1655370;85;21553;-57
2021/07/01 02:21:41;;;;;;;5.78;5.28;;;;;;;27.29;59.92;101317.36;1679113;84;21038;-63
2021/07/01 02:24:09;;;;;;;6.10;5.12;;;;;;;27.29;59.85;101317.36;1653381;85;21033;-55
2021/07/01 02:26:36;;;;;;;5.97;5.10;;;;;;;27.29;59.74;101315.55;1658161;84;21054;-55
2021/07/01 02:29:03;;;;;;;7.67;5.47;;;;;;;27.30;59.63;101308.38;1648277;85;21026;-57
2021/07/01 02:31:33;;;;;;;27.85;6.60;;;;;;;27.29;59.54;101312.88;1642084;85;21022;-57
2021/07/01 02:34:01;;;;;;;16.27;6.83;;;;;;;27.30;59.39;101314.59;1619539;87;21030;-56
2021/07/01 02:36:30;;;;;;;15.05;5.67;;;;;;;27.30;59.28;101308.38;1621993;86;21089;-56
2021/07/01 02:39:07;;;;;;;11.97;5.72;;;;;;;27.30;59.23;101305.23;1545620;90;21581;-62
2021/07/01 02:41:37;;;;;;;9.08;5.58;;;;;;;27.30;59.08;101306.57;1543266;91;22003;-55
2021/07/01 02:44:06;;;;;;;10.65;5.75;;;;;;;27.31;59.03;101308.25;1556624;91;21578;-56
2021/07/01 02:46:53;;;;;;;7.30;5.62;;;;;;;27.31;58.98;101302.91;1522288;92;21125;-58
2021/07/01 02:49:22;;;;;;;9.55;6.08;;;;;;;27.31;58.83;101302.91;1484922;95;21103;-56
2021/07/01 02:51:53;;;;;;;9.45;6.40;;;;;;;27.31;58.72;101302.05;1479202;95;21129;-55
2021/07/01 02:54:22;;;;;;;8.75;5.47;;;;;;;27.29;58.58;101298.66;1510653;93;21128;-56
2021/07/01 02:56:50;;;;;;;10.05;6.87;;;;;;;27.31;58.44;101305.58;1514829;93;21093;-57
2021/07/01 02:59:18;;;;;;;7.20;6.05;;;;;;;27.31;58.42;101310.06;1515069;93;21119;-61
2021/07/01 03:01:50;;;;;;;7.17;4.95;;;;;;;27.30;58.36;101311.91;1521226;93;21121;-61
2021/07/01 03:04:29;;;;;;;5.95;5.37;;;;;;;27.31;58.27;101304.23;1511587;93;21141;-58
2021/07/01 03:06:56;;;;;;;7.30;5.60;;;;;;;27.31;58.09;101301.56;1520384;93;21172;-59
2021/07/01 03:09:24;;;;;;;7.37;5.60;;;;;;;27.32;58.04;101296.60;1515541;93;21147;-56
2021/07/01 03:11:53;;;;;;;8.85;6.03;;;;;;;27.32;57.96;101289.92;1527974;92;21085;-60
2021/07/01 03:14:21;;;;;;;5.90;5.25;;;;;;;27.34;57.81;101288.00;1543616;91;21092;-57
2021/07/01 03:16:50;;;;;;;6.80;6.08;;;;;;;27.35;57.78;101283.48;1564690;84;21402;-55
2021/07/01 03:19:18;;;;;;;7.75;5.97;;;;;;;27.35;57.73;101276.31;1652206;84;22446;-57
2021/07/01 03:21:50;;;;;;;6.72;6.05;;;;;;;27.37;57.62;101277.52;1596589;88;21173;-55
2021/07/01 03:24:17;;;;;;;7.72;5.65;;;;;;;27.38;57.38;101275.22;1597616;88;21623;-55
2021/07/01 03:26:44;;;;;;;11.03;5.60;;;;;;;27.39;57.12;101269.73;1596345;88;21057;-59
2021/07/01 03:29:13;;;;;;;9.48;5.67;;;;;;;27.42;56.82;101255.76;1595151;88;21093;-58
2021/07/01 03:31:40;;;;;;;6.90;5.28;;;;;;;27.43;56.54;101238.77;1599613;87;21112;-56
2021/07/01 03:34:08;;;;;;;9.40;5.42;;;;;;;27.46;56.41;101241.16;1595910;88;21572;-58
2021/07/01 03:36:35;;;;;;;10.98;5.92;;;;;;;27.47;56.36;101234.34;1600036;88;21125;-62
2021/07/01 03:39:22;;;;;;;9.30;6.37;;;;;;;27.50;56.37;101226.55;1596834;88;21073;-57
2021/07/01 03:41:53;;;;;;;9.00;5.55;;;;;;;27.52;56.11;101217.44;1599775;88;21145;-57
2021/07/01 03:44:20;;;;;;;8.05;5.28;;;;;;;27.57;55.82;101217.05;1591278;88;21090;-56
2021/07/01 03:46:48;;;;;;;15.13;6.78;;;;;;;27.64;55.24;101200.83;1619593;87;21046;-60
2021/07/01 03:49:15;;;;;;;9.45;5.62;;;;;;;27.72;55.14;101182.33;1621596;87;21613;-54
2021/07/01 03:52:02;;;;;;;8.85;6.45;;;;;;;27.83;54.59;101174.20;1621368;87;21081;-55
2021/07/01 03:54:33;;;;;;;9.75;5.87;;;;;;;27.97;54.19;101166.70;1621599;87;21062;-59
2021/07/01 03:57:03;;;;;;;9.23;5.62;;;;;;;28.12;54.23;101169.86;1620209;87;21108;-57
2021/07/01 03:59:38;;;;;;;6.45;5.83;;;;;;;28.26;53.84;101160.11;1673666;84;21511;-57
2021/07/01 04:02:25;;;;;;;8.58;6.22;;;;;;;28.39;53.43;101155.36;1697577;84;21066;-63
2021/07/01 04:04:54;;;;;;;8.80;6.03;;;;;;;28.55;53.29;101131.56;1696736;83;21053;-62
2021/07/01 04:07:22;;;;;;;7.12;5.60;;;;;;;28.70;52.88;101123.52;1691048;83;21053;-58
2021/07/01 04:09:49;;;;;;;5.75;5.20;;;;;;;28.82;52.45;101125.06;1697707;84;21550;-55
2021/07/01 04:12:35;;;;;;;6.55;5.08;;;;;;;28.88;52.40;101127.18;1703163;83;21023;-59
2021/07/01 04:15:10;;;;;;;6.30;5.70;;;;;;;28.88;52.06;101131.20;1629875;87;21060;-55
2021/07/01 04:17:38;;;;;;;9.60;7.78;;;;;;;28.86;52.05;101126.96;1591641;89;21092;-57
2021/07/01 04:20:24;;;;;;;7.28;6.12;;;;;;;28.80;52.57;101139.09;1581194;89;21062;-55
2021/07/01 04:23:02;;;;;;;6.45;5.85;;;;;;;28.72;52.81;101145.65;1551660;92;21062;-56
2021/07/01 04:25:50;;;;;;;8.80;7.12;;;;;;;28.68;52.50;101150.08;1550357;92;21579;-58
2021/07/01 04:28:17;;;;;;;42.05;37.50;;;;;;;28.67;52.29;101155.06;1550570;92;21089;-56
2021/07/01 04:30:44;;;;;;;31.77;28.67;;;;;;;28.63;52.44;101155.84;1550340;92;21085;-61
2021/07/01 04:33:30;;;;;;;15.45;14.05;;;;;;;28.61;52.91;101159.64;1546504;92;21146;-54
2021/07/01 04:35:57;;;;;;;16.23;11.12;;;;;;;28.57;53.31;101164.92;1550480;92;21569;-57
2021/07/01 04:38:25;;;;;;;10.30;8.80;;;;;;;28.56;53.39;101164.59;1548916;92;21103;-57
2021/07/01 04:40:54;;;;;;;10.38;7.85;;;;;;;28.50;53.59;101160.58;1550538;92;21026;-55
2021/07/01 04:43:22;;;;;;;8.90;6.22;;;;;;;28.47;53.71;101156.85;1553135;92;21087;-56
2021/07/01 04:45:50;;;;;;;9.68;7.37;;;;;;;28.43;53.81;101147.41;1550525;92;21549;-54
2021/07/01 04:48:18;;;;;;;7.58;6.95;;;;;;;28.38;54.05;101151.48;1554958;92;21118;-56
2021/07/01 04:50:47;;;;;;;9.05;6.80;;;;;;;28.35;54.38;101149.08;1550293;92;21058;-54
2021/07/01 04:53:32;;;;;;;6.75;6.15;;;;;;;28.32;54.64;101143.50;1555358;91;21073;-59
2021/07/01 04:56:18;;;;;;;6.20;5.65;;;;;;;28.31;54.76;101151.19;1542515;92;21040;-56
2021/07/01 04:58:48;;;;;;;7.57;5.67;;;;;;;28.28;54.85;101147.43;1545437;90;21169;-59
2021/07/01 05:01:26;;;;;;;10.58;6.30;;;;;;;28.26;54.76;101136.02;1547235;92;21076;-56
2021/07/01 05:04:13;;;;;;;6.60;5.83;;;;;;;28.22;54.56;101133.27;1564095;91;21186;-55
2021/07/01 05:06:41;;;;;;;26.07;7.67;;;;;;;28.18;54.70;101135.86;1540876;92;21137;-55
2021/07/01 05:09:09;;;;;;;7.72;6.20;;;;;;;28.12;54.87;101139.94;1519803;93;21598;-57
2021/07/01 05:11:39;;;;;;;6.90;5.80;;;;;;;28.07;55.04;101143.98;1589371;89;21114;-55
2021/07/01 05:14:07;;;;;;;6.78;5.92;;;;;;;28.01;55.33;101144.52;1608465;89;21116;-55
2021/07/01 05:16:34;;;;;;;7.70;6.30;;;;;;;27.96;55.62;101148.12;1630683;87;21013;-62
2021/07/01 05:19:04;;;;;;;8.23;7.10;;;;;;;27.92;55.72;101153.34;1605855;86;21088;-56
2021/07/01 05:21:37;;;;;;;9.53;7.45;;;;;;;27.90;55.81;101162.00;1663350;85;21027;-64
2021/07/01 05:24:13;;;;;;;8.08;7.33;;;;;;;27.87;56.01;101168.94;1692481;82;21058;-59
2021/07/01 05:26:40;;;;;;;6.47;5.87;;;;;;;27.84;56.13;101166.55;1691690;82;21077;-59
2021/07/01 05:29:25;;;;;;;11.60;6.47;;;;;;;27.82;56.12;101149.79;1695268;82;21041;-56
2021/07/01 05:32:10;;;;;;;11.15;9.30;;;;;;;27.82;56.21;101147.11;1625873;87;21084;-56
2021/07/01 05:34:39;;;;;;;8.08;7.28;;;;;;;27.80;56.32;101141.05;1558131;90;21614;-56
2021/07/01 05:37:06;;;;;;;6.90;6.30;;;;;;;27.79;56.45;101146.03;1553521;91;21080;-57
2021/07/01 05:39:35;;;;;;;6.45;5.85;;;;;;;27.77;56.66;101145.31;1542868;89;21096;-59
2021/07/01 05:42:04;;;;;;;7.45;5.90;;;;;;;27.77;56.79;101152.00;1560605;91;21128;-59
2021/07/01 05:44:31;;;;;;;7.92;6.65;;;;;;;27.76;56.93;101158.34;1549992;90;21067;-56
2021/07/01 05:46:57;;;;;;;6.78;6.22;;;;;;;27.78;56.94;101161.73;1553301;91;21113;-58
2021/07/01 05:49:24;;;;;;;8.40;6.03;;;;;;;27.81;56.90;101162.78;1561870;91;21044;-56
2021/07/01 05:51:55;;;;;;;9.88;7.00;;;;;;;27.83;56.94;101161.68;1554171;91;21124;-60
2021/07/01 05:56:53;;;;;;;8.40;7.60;;;;;;;27.88;57.11;101180.83;1477527;96;21115;-58
2021/07/01 05:59:20;;;;;;;10.10;6.97;;;;;;;27.90;57.23;101192.76;1490737;95;21083;-57
2021/07/01 06:01:47;;;;;;;8.80;7.15;;;;;;;27.92;57.20;101208.18;1473132;95;21121;-57
2021/07/01 06:04:13;;;;;;;8.23;7.00;;;;;;;27.93;57.14;101213.39;1488880;96;21084;-58
2021/07/01 06:06:59;;;;;;;8.35;7.45;;;;;;;27.96;57.10;101217.66;1505094;93;21152;-56
2021/07/01 06:09:28;;;;;;;10.75;6.65;;;;;;;28.01;57.20;101227.45;1428806;99;21180;-57
2021/07/01 06:11:58;;;;;;;7.00;6.30;;;;;;;28.07;57.33;101230.93;1440344;95;21162;-56
2021/07/01 06:14:27;;;;;;;13.13;11.50;;;;;;;28.15;57.37;101239.17;1509168;93;21583;-56
2021/07/01 06:16:58;;;;;;;15.23;11.70;;;;;;;28.25;57.32;101244.06;1504403;94;21091;-56
2021/07/01 06:19:25;;;;;;;14.78;13.25;;;;;;;28.37;57.20;101247.00;1472700;97;21220;-56
2021/07/01 06:21:52;;;;;;;18.95;15.72;;;;;;;28.50;56.97;101254.28;1473041;96;21094;-55
2021/07/01 06:24:19;;;;;;;16.80;14.87;;;;;;;28.62;56.82;101251.91;1468182;96;21697;-55
2021/07/01 06:26:47;;;;;;;19.27;16.12;;;;;;;28.74;56.50;101254.83;1441180;98;21184;-57
2021/07/01 06:29:15;;;;;;;16.32;14.63;;;;;;;28.84;56.26;101257.52;1418101;100;21157;-62
2021/07/01 06:31:42;;;;;;;12.30;11.05;;;;;;;28.90;56.09;101251.11;1425374;99;21204;-57
2021/07/01 06:34:08;;;;;;;11.80;10.70;;;;;;;28.95;55.97;101244.83;1471684;96;21696;-56
2021/07/01 06:36:40;;;;;;;11.18;9.23;;;;;;;29.00;55.81;101248.95;1448841;96;21177;-56
2021/07/01 06:39:27;;;;;;;12.35;8.70;;;;;;;29.03;55.76;101251.34;1457222;96;21180;-57
2021/07/01 06:41:58;;;;;;;7.92;6.95;;;;;;;29.03;55.76;101252.19;1407066;101;21189;-56
2021/07/01 06:44:43;;;;;;;7.95;7.03;;;;;;;29.04;55.75;101251.19;1369691;102;21165;-56
2021/07/01 06:47:11;;;;;;;7.50;6.80;;;;;;;29.07;55.77;101252.75;1387259;101;21117;-56
2021/07/01 06:49:58;;;;;;;9.23;7.10;;;;;;;29.07;55.86;101258.11;1409282;100;21097;-59
2021/07/01 06:52:44;;;;;;;15.53;13.90;;;;;;;29.12;56.00;101275.97;1409944;100;21107;-58
2021/07/01 06:55:29;;;;;;;21.97;19.70;;;;;;;29.16;55.99;101272.05;1414464;99;21149;-57
2021/07/01 06:58:00;;;;;;;9.98;8.98;;;;;;;29.19;55.87;101270.41;1411154;99;21167;-56
2021/07/01 07:00:27;;;;;;;11.78;10.45;;;;;;;29.25;55.79;101273.87;1408815;100;21215;-57
2021/07/01 07:02:54;;;;;;;9.68;8.08;;;;;;;29.30;55.71;101275.66;1403779;101;21169;-55
2021/07/01 07:05:21;;;;;;;11.60;9.48;;;;;;;29.36;55.58;101267.90;1404153;100;21114;-56
2021/07/01 07:07:49;;;;;;;6.47;5.87;;;;;;;29.47;55.38;101266.91;1420461;99;21160;-57
2021/07/01 07:10:20;;;;;;;7.55;5.35;;;;;;;29.59;55.15;101263.09;1416636;100;21130;-60
2021/07/01 07:12:54;;;;;;;7.85;5.97;;;;;;;29.70;54.85;101258.40;1435221;98;21589;-59
2021/07/01 07:15:26;;;;;;;8.43;6.10;;;;;;;29.82;54.49;101253.73;1416104;97;21667;-57
2021/07/01 07:17:50;;;;;;;5.95;5.45;;;;;;;29.92;54.38;101243.00;1480175;96;21209;-58
2021/07/01 07:20:22;;;;;;;5.78;5.28;;;;;;;30.01;54.39;101242.96;1521115;93;21568;-58
2021/07/01 07:22:49;;;;;;;10.43;5.60;;;;;;;30.13;54.14;101261.91;1519212;93;21100;-57
2021/07/01 07:25:16;;;;;;;7.50;5.83;;;;;;;30.23;53.81;101264.06;1533717;92;21074;-61
2021/07/01 07:27:54;;;;;;;6.55;5.85;;;;;;;30.29;53.59;101278.30;1547720;91;21102;-62
2021/07/01 07:30:25;;;;;;;6.30;5.67;;;;;;;30.31;53.38;101280.34;1574469;90;21584;-57
2021/07/01 07:32:51;;;;;;;10.60;6.47;;;;;;;30.35;53.42;101281.73;1559754;90;21066;-56
2021/07/01 07:35:20;;;;;;;6.67;6.00;;;;;;;30.40;53.28;101276.75;1554036;90;21036;-55
2021/07/01 07:37:47;;;;;;;7.47;6.12;;;;;;;30.42;53.10;101274.77;1556519;90;21155;-54
2021/07/01 07:40:14;;;;;;;7.58;6.03;;;;;;;30.42;53.17;101269.39;1534652;92;21109;-57
2021/07/01 07:42:44;;;;;;;7.95;6.40;;;;;;;30.40;53.23;101261.98;1557462;90;21152;-55
2021/07/01 07:45:12;;;;;;;6.85;6.25;;;;;;;30.40;53.44;101264.67;1568325;90;21130;-57
2021/07/01 07:47:39;;;;;;;7.90;6.05;;;;;;;30.38;53.66;101258.60;1561978;90;21076;-56
2021/07/01 07:50:08;;;;;;;16.65;7.40;;;;;;;30.37;53.82;101258.27;1563835;90;21032;-56
2021/07/01 07:52:35;;;;;;;9.20;6.17;;;;;;;30.36;54.02;101253.87;1562803;90;21067;-56
2021/07/01 07:55:05;;;;;;;5.80;5.28;;;;;;;30.38;54.18;101254.58;1654751;83;21018;-56
2021/07/01 07:57:33;;;;;;;6.87;6.17;;;;;;;30.41;54.26;101259.66;1679770;84;21154;-56
2021/07/01 08:00:00;;;;;;;14.83;13.30;;;;;;;30.45;54.44;101277.17;1709330;83;21565;-57
2021/07/01 08:02:53;;;;;;;8.30;7.58;;;;;;;30.48;54.26;101280.88;1701693;83;21046;-57
2021/07/01 08:05:24;;;;;;;6.75;6.17;;;;;;;30.51;54.28;101288.66;1688500;84;21074;-57
2021/07/01 08:07:51;;;;;;;15.80;14.15;;;;;;;30.57;54.54;101293.07;1631972;87;21003;-56
2021/07/01 08:10:20;;;;;;;17.30;15.65;;;;;;;30.62;54.83;101292.99;1629599;87;21093;-55
2021/07/01 08:12:50;;;;;;;8.50;7.28;;;;;;;30.67;54.81;101303.27;1633209;87;21082;-55
2021/07/01 08:15:19;;;;;;;7.13;6.30;;;;;;;30.72;54.70;101299.65;1577135;91;21137;-54
2021/07/01 08:17:49;;;;;;;7.80;6.28;;;;;;;30.77;54.57;101306.25;1574582;90;21155;-56
2021/07/01 08:20:17;;;;;;;6.90;6.20;;;;;;;30.79;54.54;101294.03;1578616;90;21124;-56
2021/07/01 08:22:46;;;;;;;7.97;7.17;;;;;;;30.79;54.39;101286.80;1579747;90;21044;-58
2021/07/01 08:25:13;;;;;;;7.00;6.00;;;;;;;30.82;54.31;101277.11;1579043;90;21160;-58
2021/07/01 08:27:45;;;;;;;6.90;6.20;;;;;;;30.87;54.15;101271.32;1578762;90;21061;-57
2021/07/01 08:30:14;;;;;;;8.40;7.03;;;;;;;30.91;54.16;101261.95;1578283;90;21093;-58
2021/07/01 08:32:41;;;;;;;11.75;10.55;;;;;;;30.96;53.93;101256.95;1573926;90;21117;-59
2021/07/01 08:35:12;;;;;;;10.28;9.40;;;;;;;31.01;53.66;101250.63;1578581;90;21075;-58
2021/07/01 08:37:46;;;;;;;10.90;8.88;;;;;;;31.06;53.65;101252.34;1578167;91;21085;-59
2021/07/01 08:40:15;;;;;;;7.45;6.42;;;;;;;31.11;53.20;101256.78;1574433;90;21053;-58
2021/07/01 08:42:42;;;;;;;10.85;7.92;;;;;;;31.11;53.09;101261.66;1541733;91;21101;-58
2021/07/01 08:45:14;;;;;;;11.83;10.55;;;;;;;31.12;53.13;101263.34;1519497;92;21075;-58
2021/07/01 08:47:44;;;;;;;8.65;6.70;;;;;;;31.12;53.20;101260.66;1510108;93;21166;-56
2021/07/01 08:50:16;;;;;;;10.30;6.22;;;;;;;31.13;53.35;101251.60;1541495;91;21039;-58
2021/07/01 08:53:09;;;;;;;9.03;8.23;;;;;;;31.15;53.29;101250.09;1541992;91;21139;-58
2021/07/01 08:55:35;;;;;;;9.70;8.70;;;;;;;31.18;53.18;101240.39;1542357;92;21054;-58
2021/07/01 08:58:03;;;;;;;34.13;29.40;;;;;;;31.20;53.24;101220.92;1557669;90;21189;-59
2021/07/01 09:00:30;;;;;;;9.43;8.53;;;;;;;31.21;53.13;101210.50;1538739;90;21065;-59
2021/07/01 09:03:06;;;;;;;10.13;5.83;;;;;;;31.22;53.11;101209.52;1547421;91;21035;-58
2021/07/01 09:05:37;;;;;;;5.50;5.03;;;;;;;31.22;53.09;101217.58;1562345;89;22430;-59
2021/07/01 09:08:09;;;;;;;6.47;5.87;;;;;;;31.18;53.05;101221.05;1590952;88;21014;-59
2021/07/01 09:10:36;;;;;;;7.95;6.67;;;;;;;31.15;53.06;101219.18;1611418;87;21034;-57
2021/07/01 09:13:04;;;;;;;6.80;6.20;;;;;;;31.09;53.15;101217.11;1662397;85;21327;-58
2021/07/01 09:15:33;;;;;;;9.70;5.85;;;;;;;31.04;53.34;101215.38;1636074;85;21068;-59
2021/07/01 09:18:01;;;;;;;9.05;6.67;;;;;;;30.97;53.47;101221.03;1671209;85;21036;-59
2021/07/01 09:20:34;;;;;;;6.58;5.97;;;;;;;30.91;53.57;101224.33;1660450;85;21034;-56
2021/07/01 09:23:04;;;;;;;6.92;6.33;;;;;;;30.87;53.92;101222.95;1661571;84;21046;-55
2021/07/01 09:25:31;;;;;;;8.73;6.83;;;;;;;30.80;54.09;101207.04;1683084;84;21583;-59
2021/07/01 09:27:59;;;;;;;7.12;6.45;;;;;;;30.76;54.23;101198.94;1656135;84;21541;-59
2021/07/01 09:30:28;;;;;;;7.22;6.65;;;;;;;30.69;54.38;101191.12;1644934;85;21009;-59
2021/07/01 09:33:01;;;;;;;29.12;26.33;;;;;;;30.63;54.52;101197.97;1643136;86;21080;-59
2021/07/01 09:35:30;;;;;;;10.68;9.58;;;;;;;30.60;54.72;101198.77;1541121;92;21137;-59
2021/07/01 09:38:08;;;;;;;8.00;7.20;;;;;;;30.57;55.01;101189.66;1529990;92;21121;-60
2021/07/01 09:40:36;;;;;;;8.60;6.55;;;;;;;30.54;55.23;101180.09;1526620;92;21813;-57
2021/07/01 09:43:06;;;;;;;6.47;5.92;;;;;;;30.52;55.40;101170.81;1521481;92;21585;-58
2021/07/01 09:45:35;;;;;;;6.63;6.03;;;;;;;30.52;55.48;101169.47;1544958;87;21112;-57
2021/07/01 09:50:37;;;;;;;7.42;5.85;;;;;;;30.53;55.64;101173.86;1565176;90;21087;-58
2021/07/01 09:53:04;;;;;;;9.70;7.78;;;;;;;30.58;55.65;101166.70;1608309;88;21071;-57
2021/07/01 09:55:32;;;;;;;7.35;6.65;;;;;;;30.62;55.64;101164.05;1602774;87;21088;-61
2021/07/01 09:58:11;;;;;;;6.65;5.87;;;;;;;30.67;55.31;101177.00;1608121;88;21066;-56
2021/07/01 10:00:38;;;;;;;5.92;5.53;;;;;;;30.69;55.10;101173.17;1535419;92;21562;-56
2021/07/01 10:03:07;;;;;;;11.48;6.45;;;;;;;30.69;55.06;101168.30;1558060;90;21102;-63
2021/07/01 10:05:36;;;;;;;10.55;6.15;;;;;;;30.68;55.13;101147.81;1556838;91;21135;-58
2021/07/01 10:08:04;;;;;;;6.95;6.15;;;;;;;30.69;55.37;101149.49;1557070;91;21110;-60
2021/07/01 10:10:47;;;;;;;6.75;6.05;;;;;;;30.70;55.45;101159.25;1554655;90;21150;-55
2021/07/01 10:13:15;;;;;;;6.10;5.42;;;;;;;30.71;55.26;101136.78;1503445;94;21090;-56
2021/07/01 10:15:42;;;;;;;7.55;6.40;;;;;;;30.73;55.33;101134.78;1509132;93;21117;-57
2021/07/01 10:18:20;;;;;;;8.98;8.08;;;;;;;30.74;55.37;101140.48;1501485;94;21122;-56
2021/07/01 10:20:53;;;;;;;12.93;11.73;;;;;;;30.78;55.10;101132.46;1425015;97;21219;-56
2021/07/01 10:23:28;;;;;;;11.10;9.83;;;;;;;30.81;55.15;101113.36;1433026;98;21111;-55
2021/07/01 10:25:57;;;;;;;11.83;10.78;;;;;;;30.83;55.25;101112.70;1432343;97;21141;-55
2021/07/01 10:28:25;;;;;;;7.97;6.15;;;;;;;30.87;55.27;101107.40;1432904;99;21129;-56
2021/07/01 10:31:03;;;;;;;6.92;6.00;;;;;;;30.91;55.19;101116.84;1428340;99;21674;-59
2021/07/01 10:33:33;;;;;;;15.48;13.95;;;;;;;30.97;55.04;101111.69;1446016;98;21129;-58
2021/07/01 10:36:02;;;;;;;10.15;9.15;;;;;;;31.03;54.83;101106.18;1424997;99;21134;-56
2021/07/01 10:38:46;;;;;;;6.60;6.03;;;;;;;31.07;54.73;101107.55;1443459;98;21078;-59
2021/07/01 10:41:31;;;;;;;9.48;8.58;;;;;;;31.13;54.54;101114.99;1407482;100;21127;-58
2021/07/01 10:43:58;;;;;;;9.45;8.50;;;;;;;31.19;54.13;101123.77;1402802;101;21120;-58
2021/07/01 10:46:39;;;;;;;7.97;7.28;;;;;;;31.23;53.78;101111.70;1417522;98;22009;-56
2021/07/01 10:49:06;;;;;;;8.33;6.85;;;;;;;31.26;53.61;101103.33;1433675;98;21143;-58
2021/07/01 10:51:32;;;;;;;10.05;6.40;;;;;;;31.29;53.55;101100.31;1434831;99;21148;-59
2021/07/01 10:54:13;;;;;;;8.90;6.70;;;;;;;31.30;53.47;101106.88;1434693;99;21612;-56
2021/07/01 10:56:41;;;;;;;6.00;5.40;;;;;;;31.32;53.31;101104.87;1449332;97;21147;-58
2021/07/01 10:59:10;;;;;;;9.70;5.50;;;;;;;31.35;53.23;101101.02;1455215;96;21719;-56
2021/07/01 11:01:41;;;;;;;22.70;20.30;;;;;;;31.36;53.26;101101.38;1457070;97;21159;-55
2021/07/01 11:04:18;;;;;;;10.93;9.83;;;;;;;31.37;53.13;101100.36;1414726;100;21646;-57
2021/07/01 11:06:57;;;;;;;7.90;7.05;;;;;;;31.04;53.91;101095.76;1418964;100;21171;-57
2021/07/01 11:09:27;;;;;;;8.00;6.45;;;;;;;30.98;54.09;101096.38;1425670;98;21152;-56
2021/07/01 11:12:01;;;;;;;5.75;5.25;;;;;;;31.28;53.32;101101.33;1467092;97;21635;-57
2021/07/01 11:14:42;;;;;;;7.22;5.53;;;;;;;31.32;53.08;101097.33;1443357;97;21104;-55
2021/07/01 11:17:09;;;;;;;6.47;5.30;;;;;;;31.31;53.04;101107.23;1461859;95;21100;-55
2021/07/01 11:19:43;;;;;;;5.65;5.17;;;;;;;31.29;53.08;101112.41;1516260;93;22089;-56
2021/07/01 11:22:11;;;;;;;10.20;5.78;;;;;;;31.27;53.16;101100.97;1466277;96;21240;-56
2021/07/01 11:24:46;;;;;;;6.28;5.67;;;;;;;31.28;53.23;101104.02;1539937;92;21107;-56
2021/07/01 11:27:12;;;;;;;9.73;6.00;;;;;;;31.28;53.25;101102.15;1530437;91;21110;-55
2021/07/01 11:29:42;;;;;;;5.12;4.72;;;;;;;31.29;53.19;101094.94;1510525;94;21693;-55
2021/07/01 11:32:25;;;;;;;5.05;4.58;;;;;;;31.31;53.13;101095.63;1513068;94;21149;-56
2021/07/01 11:34:55;;;;;;;11.57;5.40;;;;;;;31.31;53.12;101101.00;1521884;92;21139;-55
2021/07/01 11:37:39;;;;;;;6.70;5.28;;;;;;;31.32;53.10;101100.83;1542295;93;21684;-57
2021/07/01 11:40:22;;;;;;;6.50;5.22;;;;;;;31.32;53.05;101096.80;1528359;92;21198;-56
2021/07/01 11:42:51;;;;;;;6.62;5.78;;;;;;;31.35;53.01;101106.92;1520081;93;21594;-55
2021/07/01 11:45:18;;;;;;;6.65;6.05;;;;;;;31.36;52.87;101105.41;1525129;93;21072;-55